sensor_id;sensor_type;location;lat;lon;timestamp;P1;durP1;ratioP1;P2;durP2;ratioP2
60211;SDS011;46079;48.686;15.598;2023-05-23T00:00:58;8.95;;;4.35;;
60211;SDS011;46079;48.686;15.598;2023-05-23T00:03:24;7.90;;;4.03;;
60211;SDS011;46079;48.686;15.598;2023-05-23T00:05:51;7.88;;;3.90;;
60211;SDS011;46079;48.686;15.598;2023-05-23T00:08:17;8.85;;;4.07;;
60211;SDS011;46079;48.686;15.598;2023-05-23T00:10:43;8.73;;;4.20;;
60211;SDS011;46079;48.686;15.598;2023-05-23T00:13:09;9.27;;;4.40;;
60211;SDS011;46079;48.686;15.598;2023-05-23T00:15:37;8.73;;;4.30;;
60211;SDS011;46079;48.686;15.598;2023-05-23T00:18:03;8.63;;;4.07;;
60211;SDS011;46079;48.686;15.598;2023-05-23T00:20:28;9.05;;;3.97;;
60211;SDS011;46079;48.686;15.598;2023-05-23T00:22:54;8.60;;;4.30;;
60211;SDS011;46079;48.686;15.598;2023-05-23T00:25:25;8.93;;;4.10;;
60211;SDS011;46079;48.686;15.598;2023-05-23T00:27:58;8.43;;;4.60;;
60211;SDS011;46079;48.686;15.598;2023-05-23T00:30:24;10.18;;;4.30;;
60211;SDS011;46079;48.686;15.598;2023-05-23T00:32:49;9.02;;;4.28;;
60211;SDS011;46079;48.686;15.598;2023-05-23T00:35:18;8.82;;;4.30;;
60211;SDS011;46079;48.686;15.598;2023-05-23T00:37:45;9.20;;;4.18;;
60211;SDS011;46079;48.686;15.598;2023-05-23T00:40:11;8.38;;;4.28;;
60211;SDS011;46079;48.686;15.598;2023-05-23T00:42:37;8.07;;;4.03;;
60211;SDS011;46079;48.686;15.598;2023-05-23T00:45:03;7.88;;;3.97;;
60211;SDS011;46079;48.686;15.598;2023-05-23T00:47:29;8.20;;;3.90;;
60211;SDS011;46079;48.686;15.598;2023-05-23T00:49:55;8.50;;;4.10;;
60211;SDS011;46079;48.686;15.598;2023-05-23T00:52:20;8.35;;;3.80;;
60211;SDS011;46079;48.686;15.598;2023-05-23T00:54:46;8.63;;;4.30;;
60211;SDS011;46079;48.686;15.598;2023-05-23T00:57:11;9.63;;;4.07;;
60211;SDS011;46079;48.686;15.598;2023-05-23T00:59:37;8.30;;;4.07;;
60211;SDS011;46079;48.686;15.598;2023-05-23T01:02:03;8.30;;;4.28;;
60211;SDS011;46079;48.686;15.598;2023-05-23T01:04:28;8.63;;;4.25;;
60211;SDS011;46079;48.686;15.598;2023-05-23T01:06:58;8.65;;;4.20;;
60211;SDS011;46079;48.686;15.598;2023-05-23T01:09:25;8.30;;;4.10;;
60211;SDS011;46079;48.686;15.598;2023-05-23T01:11:57;8.27;;;3.95;;
60211;SDS011;46079;48.686;15.598;2023-05-23T01:14:50;8.88;;;3.90;;
60211;SDS011;46079;48.686;15.598;2023-05-23T01:20:10;8.48;;;3.80;;
60211;SDS011;46079;48.686;15.598;2023-05-23T01:28:04;8.32;;;3.95;;
60211;SDS011;46079;48.686;15.598;2023-05-23T01:30:32;8.48;;;4.22;;
60211;SDS011;46079;48.686;15.598;2023-05-23T01:33:03;9.18;;;4.43;;
60211;SDS011;46079;48.686;15.598;2023-05-23T01:35:30;7.88;;;3.67;;
60211;SDS011;46079;48.686;15.598;2023-05-23T01:37:56;8.27;;;4.05;;
60211;SDS011;46079;48.686;15.598;2023-05-23T01:40:22;8.43;;;4.00;;
60211;SDS011;46079;48.686;15.598;2023-05-23T01:42:48;8.60;;;4.07;;
60211;SDS011;46079;48.686;15.598;2023-05-23T01:45:15;8.23;;;3.78;;
60211;SDS011;46079;48.686;15.598;2023-05-23T01:47:41;7.95;;;3.95;;
60211;SDS011;46079;48.686;15.598;2023-05-23T01:50:08;8.70;;;4.10;;
60211;SDS011;46079;48.686;15.598;2023-05-23T01:52:35;8.15;;;3.70;;
60211;SDS011;46079;48.686;15.598;2023-05-23T01:55:04;8.10;;;3.88;;
60211;SDS011;46079;48.686;15.598;2023-05-23T01:57:34;8.25;;;3.85;;
60211;SDS011;46079;48.686;15.598;2023-05-23T02:00:02;8.32;;;3.95;;
60211;SDS011;46079;48.686;15.598;2023-05-23T02:02:30;8.18;;;4.07;;
60211;SDS011;46079;48.686;15.598;2023-05-23T02:04:57;9.30;;;4.00;;
60211;SDS011;46079;48.686;15.598;2023-05-23T02:07:23;8.32;;;3.85;;
60211;SDS011;46079;48.686;15.598;2023-05-23T02:09:48;8.35;;;4.22;;
60211;SDS011;46079;48.686;15.598;2023-05-23T02:12:14;7.82;;;3.85;;
60211;SDS011;46079;48.686;15.598;2023-05-23T02:14:39;8.32;;;4.25;;
60211;SDS011;46079;48.686;15.598;2023-05-23T02:17:06;8.27;;;3.75;;
60211;SDS011;46079;48.686;15.598;2023-05-23T02:19:34;9.35;;;4.82;;
60211;SDS011;46079;48.686;15.598;2023-05-23T02:22:00;8.20;;;3.85;;
60211;SDS011;46079;48.686;15.598;2023-05-23T02:24:26;8.52;;;3.75;;
60211;SDS011;46079;48.686;15.598;2023-05-23T02:26:52;8.82;;;3.53;;
60211;SDS011;46079;48.686;15.598;2023-05-23T02:29:17;9.30;;;4.13;;
60211;SDS011;46079;48.686;15.598;2023-05-23T02:31:43;7.45;;;3.55;;
60211;SDS011;46079;48.686;15.598;2023-05-23T02:34:08;8.18;;;4.10;;
60211;SDS011;46079;48.686;15.598;2023-05-23T02:36:34;7.75;;;3.45;;
60211;SDS011;46079;48.686;15.598;2023-05-23T02:39:04;8.05;;;3.80;;
60211;SDS011;46079;48.686;15.598;2023-05-23T02:41:30;8.18;;;3.92;;
60211;SDS011;46079;48.686;15.598;2023-05-23T02:43:55;8.18;;;3.83;;
60211;SDS011;46079;48.686;15.598;2023-05-23T02:46:21;7.97;;;3.90;;
60211;SDS011;46079;48.686;15.598;2023-05-23T02:48:46;8.38;;;3.90;;
60211;SDS011;46079;48.686;15.598;2023-05-23T02:51:12;7.90;;;3.80;;
60211;SDS011;46079;48.686;15.598;2023-05-23T02:53:38;8.52;;;4.00;;
60211;SDS011;46079;48.686;15.598;2023-05-23T02:56:03;8.35;;;4.15;;
60211;SDS011;46079;48.686;15.598;2023-05-23T02:58:29;8.82;;;3.88;;
60211;SDS011;46079;48.686;15.598;2023-05-23T03:00:56;8.60;;;3.78;;
60211;SDS011;46079;48.686;15.598;2023-05-23T03:03:21;8.45;;;4.07;;
60211;SDS011;46079;48.686;15.598;2023-05-23T03:05:47;8.10;;;3.55;;
60211;SDS011;46079;48.686;15.598;2023-05-23T03:08:12;8.35;;;3.90;;
60211;SDS011;46079;48.686;15.598;2023-05-23T03:10:38;7.70;;;3.83;;
60211;SDS011;46079;48.686;15.598;2023-05-23T03:13:03;7.88;;;3.78;;
60211;SDS011;46079;48.686;15.598;2023-05-23T03:15:29;10.20;;;4.78;;
60211;SDS011;46079;48.686;15.598;2023-05-23T03:17:54;10.85;;;5.85;;
60211;SDS011;46079;48.686;15.598;2023-05-23T03:20:19;10.95;;;5.53;;
60211;SDS011;46079;48.686;15.598;2023-05-23T03:22:45;12.27;;;5.20;;
60211;SDS011;46079;48.686;15.598;2023-05-23T03:25:10;10.40;;;5.45;;
60211;SDS011;46079;48.686;15.598;2023-05-23T03:27:35;9.88;;;5.20;;
60211;SDS011;46079;48.686;15.598;2023-05-23T03:30:02;10.38;;;5.05;;
60211;SDS011;46079;48.686;15.598;2023-05-23T03:32:28;9.75;;;4.82;;
60211;SDS011;46079;48.686;15.598;2023-05-23T03:34:53;9.60;;;5.35;;
60211;SDS011;46079;48.686;15.598;2023-05-23T03:37:19;9.05;;;4.93;;
60211;SDS011;46079;48.686;15.598;2023-05-23T03:39:45;9.35;;;5.07;;
60211;SDS011;46079;48.686;15.598;2023-05-23T03:42:10;10.05;;;4.95;;
60211;SDS011;46079;48.686;15.598;2023-05-23T03:44:35;8.98;;;4.68;;
60211;SDS011;46079;48.686;15.598;2023-05-23T03:47:01;9.52;;;4.93;;
60211;SDS011;46079;48.686;15.598;2023-05-23T03:49:26;9.00;;;4.90;;
60211;SDS011;46079;48.686;15.598;2023-05-23T03:51:52;9.57;;;5.00;;
60211;SDS011;46079;48.686;15.598;2023-05-23T03:54:17;10.30;;;5.07;;
60211;SDS011;46079;48.686;15.598;2023-05-23T03:56:43;11.05;;;5.43;;
60211;SDS011;46079;48.686;15.598;2023-05-23T03:59:08;9.23;;;5.07;;
60211;SDS011;46079;48.686;15.598;2023-05-23T04:01:33;9.45;;;4.95;;
60211;SDS011;46079;48.686;15.598;2023-05-23T04:03:59;9.88;;;4.70;;
60211;SDS011;46079;48.686;15.598;2023-05-23T04:06:27;11.00;;;4.85;;
60211;SDS011;46079;48.686;15.598;2023-05-23T04:08:55;9.73;;;4.55;;
60211;SDS011;46079;48.686;15.598;2023-05-23T04:11:21;9.18;;;4.85;;
60211;SDS011;46079;48.686;15.598;2023-05-23T04:13:47;10.15;;;4.70;;
60211;SDS011;46079;48.686;15.598;2023-05-23T04:16:12;9.00;;;4.85;;
60211;SDS011;46079;48.686;15.598;2023-05-23T04:18:37;9.25;;;4.70;;
60211;SDS011;46079;48.686;15.598;2023-05-23T04:21:03;10.65;;;4.93;;
60211;SDS011;46079;48.686;15.598;2023-05-23T04:23:29;8.93;;;4.80;;
60211;SDS011;46079;48.686;15.598;2023-05-23T04:25:54;9.15;;;4.82;;
60211;SDS011;46079;48.686;15.598;2023-05-23T04:28:21;10.52;;;5.05;;
60211;SDS011;46079;48.686;15.598;2023-05-23T04:30:47;9.07;;;4.70;;
60211;SDS011;46079;48.686;15.598;2023-05-23T04:33:13;9.50;;;5.03;;
60211;SDS011;46079;48.686;15.598;2023-05-23T04:35:39;9.27;;;4.68;;
60211;SDS011;46079;48.686;15.598;2023-05-23T04:38:05;9.82;;;5.07;;
60211;SDS011;46079;48.686;15.598;2023-05-23T04:40:31;9.30;;;4.95;;
60211;SDS011;46079;48.686;15.598;2023-05-23T04:42:56;9.68;;;5.10;;
60211;SDS011;46079;48.686;15.598;2023-05-23T04:45:22;9.40;;;5.20;;
60211;SDS011;46079;48.686;15.598;2023-05-23T04:47:47;9.07;;;4.55;;
60211;SDS011;46079;48.686;15.598;2023-05-23T04:50:13;9.75;;;4.75;;
60211;SDS011;46079;48.686;15.598;2023-05-23T04:52:42;10.48;;;5.32;;
60211;SDS011;46079;48.686;15.598;2023-05-23T04:55:08;9.80;;;4.95;;
60211;SDS011;46079;48.686;15.598;2023-05-23T04:57:33;8.77;;;4.70;;
60211;SDS011;46079;48.686;15.598;2023-05-23T04:59:59;8.65;;;4.70;;
60211;SDS011;46079;48.686;15.598;2023-05-23T05:02:25;9.10;;;4.90;;
60211;SDS011;46079;48.686;15.598;2023-05-23T05:04:51;9.35;;;5.13;;
60211;SDS011;46079;48.686;15.598;2023-05-23T05:07:17;8.82;;;4.68;;
60211;SDS011;46079;48.686;15.598;2023-05-23T05:09:42;9.85;;;4.80;;
60211;SDS011;46079;48.686;15.598;2023-05-23T05:12:08;8.73;;;4.80;;
60211;SDS011;46079;48.686;15.598;2023-05-23T05:14:33;8.52;;;4.30;;
60211;SDS011;46079;48.686;15.598;2023-05-23T05:16:59;8.70;;;4.57;;
60211;SDS011;46079;48.686;15.598;2023-05-23T05:19:26;9.15;;;4.88;;
60211;SDS011;46079;48.686;15.598;2023-05-23T05:21:52;10.18;;;5.25;;
60211;SDS011;46079;48.686;15.598;2023-05-23T05:24:17;9.30;;;4.80;;
60211;SDS011;46079;48.686;15.598;2023-05-23T05:26:45;9.35;;;4.90;;
60211;SDS011;46079;48.686;15.598;2023-05-23T05:29:11;9.38;;;5.00;;
60211;SDS011;46079;48.686;15.598;2023-05-23T05:31:37;8.70;;;4.75;;
60211;SDS011;46079;48.686;15.598;2023-05-23T05:34:02;9.80;;;5.20;;
60211;SDS011;46079;48.686;15.598;2023-05-23T05:36:28;10.15;;;5.20;;
60211;SDS011;46079;48.686;15.598;2023-05-23T05:38:53;9.35;;;5.07;;
60211;SDS011;46079;48.686;15.598;2023-05-23T05:41:19;9.38;;;5.10;;
60211;SDS011;46079;48.686;15.598;2023-05-23T05:43:46;10.15;;;4.93;;
60211;SDS011;46079;48.686;15.598;2023-05-23T05:46:11;9.13;;;4.78;;
60211;SDS011;46079;48.686;15.598;2023-05-23T05:48:36;9.40;;;5.15;;
60211;SDS011;46079;48.686;15.598;2023-05-23T05:51:02;8.88;;;4.85;;
60211;SDS011;46079;48.686;15.598;2023-05-23T05:53:27;9.57;;;4.88;;
60211;SDS011;46079;48.686;15.598;2023-05-23T05:55:53;9.05;;;4.90;;
60211;SDS011;46079;48.686;15.598;2023-05-23T05:58:18;9.43;;;5.25;;
60211;SDS011;46079;48.686;15.598;2023-05-23T06:00:44;8.52;;;4.50;;
60211;SDS011;46079;48.686;15.598;2023-05-23T06:03:10;9.23;;;4.90;;
60211;SDS011;46079;48.686;15.598;2023-05-23T06:05:36;8.77;;;4.80;;
60211;SDS011;46079;48.686;15.598;2023-05-23T06:08:03;9.10;;;4.95;;
60211;SDS011;46079;48.686;15.598;2023-05-23T06:10:28;10.90;;;5.15;;
60211;SDS011;46079;48.686;15.598;2023-05-23T06:12:54;10.05;;;5.18;;
60211;SDS011;46079;48.686;15.598;2023-05-23T06:15:20;9.70;;;5.03;;
60211;SDS011;46079;48.686;15.598;2023-05-23T06:17:45;8.90;;;4.72;;
60211;SDS011;46079;48.686;15.598;2023-05-23T06:20:11;9.85;;;5.00;;
60211;SDS011;46079;48.686;15.598;2023-05-23T06:22:37;9.93;;;5.07;;
60211;SDS011;46079;48.686;15.598;2023-05-23T06:25:02;11.48;;;5.13;;
60211;SDS011;46079;48.686;15.598;2023-05-23T06:27:29;9.93;;;4.70;;
60211;SDS011;46079;48.686;15.598;2023-05-23T06:29:54;9.88;;;4.90;;
60211;SDS011;46079;48.686;15.598;2023-05-23T06:32:20;9.98;;;5.05;;
60211;SDS011;46079;48.686;15.598;2023-05-23T06:34:45;9.20;;;5.10;;
60211;SDS011;46079;48.686;15.598;2023-05-23T06:37:10;8.60;;;4.70;;
60211;SDS011;46079;48.686;15.598;2023-05-23T06:39:36;10.00;;;5.20;;
60211;SDS011;46079;48.686;15.598;2023-05-23T06:42:01;9.57;;;4.72;;
60211;SDS011;46079;48.686;15.598;2023-05-23T06:44:28;9.20;;;4.60;;
60211;SDS011;46079;48.686;15.598;2023-05-23T06:46:53;8.82;;;4.53;;
60211;SDS011;46079;48.686;15.598;2023-05-23T06:49:24;10.43;;;5.18;;
60211;SDS011;46079;48.686;15.598;2023-05-23T06:51:50;10.32;;;5.00;;
60211;SDS011;46079;48.686;15.598;2023-05-23T06:54:16;9.10;;;4.63;;
60211;SDS011;46079;48.686;15.598;2023-05-23T06:56:42;9.88;;;5.15;;
60211;SDS011;46079;48.686;15.598;2023-05-23T06:59:07;9.93;;;4.72;;
60211;SDS011;46079;48.686;15.598;2023-05-23T07:01:33;8.90;;;4.88;;
60211;SDS011;46079;48.686;15.598;2023-05-23T07:03:58;9.77;;;4.68;;
60211;SDS011;46079;48.686;15.598;2023-05-23T07:06:24;8.57;;;4.40;;
60211;SDS011;46079;48.686;15.598;2023-05-23T07:08:51;9.63;;;4.65;;
60211;SDS011;46079;48.686;15.598;2023-05-23T07:11:17;9.43;;;4.93;;
60211;SDS011;46079;48.686;15.598;2023-05-23T07:13:44;9.25;;;4.70;;
60211;SDS011;46079;48.686;15.598;2023-05-23T07:16:09;8.65;;;4.60;;
60211;SDS011;46079;48.686;15.598;2023-05-23T07:18:34;9.63;;;4.95;;
60211;SDS011;46079;48.686;15.598;2023-05-23T07:21:00;10.88;;;4.80;;
60211;SDS011;46079;48.686;15.598;2023-05-23T07:23:25;9.00;;;4.90;;
60211;SDS011;46079;48.686;15.598;2023-05-23T07:25:51;9.88;;;4.70;;
60211;SDS011;46079;48.686;15.598;2023-05-23T07:28:16;9.32;;;4.78;;
60211;SDS011;46079;48.686;15.598;2023-05-23T07:30:43;12.13;;;5.22;;
60211;SDS011;46079;48.686;15.598;2023-05-23T07:33:09;9.13;;;4.40;;
60211;SDS011;46079;48.686;15.598;2023-05-23T07:35:34;8.70;;;4.50;;
60211;SDS011;46079;48.686;15.598;2023-05-23T07:37:59;9.15;;;4.57;;
60211;SDS011;46079;48.686;15.598;2023-05-23T07:40:25;8.73;;;4.70;;
60211;SDS011;46079;48.686;15.598;2023-05-23T07:42:50;9.10;;;4.85;;
60211;SDS011;46079;48.686;15.598;2023-05-23T07:45:17;8.10;;;4.13;;
60211;SDS011;46079;48.686;15.598;2023-05-23T07:47:42;9.18;;;4.80;;
60211;SDS011;46079;48.686;15.598;2023-05-23T07:50:08;8.45;;;4.60;;
60211;SDS011;46079;48.686;15.598;2023-05-23T07:52:33;9.05;;;4.88;;
60211;SDS011;46079;48.686;15.598;2023-05-23T07:55:00;8.60;;;4.65;;
60211;SDS011;46079;48.686;15.598;2023-05-23T07:57:25;8.80;;;4.40;;
60211;SDS011;46079;48.686;15.598;2023-05-23T07:59:52;9.00;;;4.57;;
60211;SDS011;46079;48.686;15.598;2023-05-23T08:02:18;9.10;;;4.53;;
60211;SDS011;46079;48.686;15.598;2023-05-23T08:04:44;8.23;;;4.22;;
60211;SDS011;46079;48.686;15.598;2023-05-23T08:07:10;10.15;;;4.75;;
60211;SDS011;46079;48.686;15.598;2023-05-23T08:09:39;9.00;;;4.95;;
60211;SDS011;46079;48.686;15.598;2023-05-23T08:12:05;8.90;;;4.75;;
60211;SDS011;46079;48.686;15.598;2023-05-23T08:14:31;9.32;;;4.75;;
60211;SDS011;46079;48.686;15.598;2023-05-23T08:16:57;9.60;;;4.70;;
60211;SDS011;46079;48.686;15.598;2023-05-23T08:19:22;8.85;;;4.65;;
60211;SDS011;46079;48.686;15.598;2023-05-23T08:21:48;8.90;;;4.80;;
60211;SDS011;46079;48.686;15.598;2023-05-23T08:24:13;8.38;;;4.50;;
60211;SDS011;46079;48.686;15.598;2023-05-23T08:26:38;8.95;;;4.43;;
60211;SDS011;46079;48.686;15.598;2023-05-23T08:29:04;8.70;;;4.43;;
60211;SDS011;46079;48.686;15.598;2023-05-23T08:31:32;8.63;;;4.63;;
60211;SDS011;46079;48.686;15.598;2023-05-23T08:33:58;9.50;;;4.47;;
60211;SDS011;46079;48.686;15.598;2023-05-23T08:36:23;8.63;;;4.40;;
60211;SDS011;46079;48.686;15.598;2023-05-23T08:38:49;8.48;;;4.40;;
60211;SDS011;46079;48.686;15.598;2023-05-23T08:41:19;8.85;;;4.40;;
60211;SDS011;46079;48.686;15.598;2023-05-23T08:43:48;9.13;;;4.68;;
60211;SDS011;46079;48.686;15.598;2023-05-23T08:46:14;8.45;;;4.53;;
60211;SDS011;46079;48.686;15.598;2023-05-23T08:48:40;9.02;;;4.72;;
60211;SDS011;46079;48.686;15.598;2023-05-23T08:51:08;8.90;;;4.82;;
60211;SDS011;46079;48.686;15.598;2023-05-23T08:53:37;9.38;;;4.72;;
60211;SDS011;46079;48.686;15.598;2023-05-23T08:56:05;9.82;;;4.72;;
60211;SDS011;46079;48.686;15.598;2023-05-23T08:58:31;9.13;;;4.72;;
60211;SDS011;46079;48.686;15.598;2023-05-23T09:00:58;9.07;;;4.45;;
60211;SDS011;46079;48.686;15.598;2023-05-23T09:03:26;9.13;;;4.88;;
60211;SDS011;46079;48.686;15.598;2023-05-23T09:05:53;9.15;;;4.43;;
60211;SDS011;46079;48.686;15.598;2023-05-23T09:08:19;8.95;;;4.72;;
60211;SDS011;46079;48.686;15.598;2023-05-23T09:10:46;8.48;;;4.40;;
60211;SDS011;46079;48.686;15.598;2023-05-23T09:13:16;9.43;;;4.47;;
60211;SDS011;46079;48.686;15.598;2023-05-23T09:18:32;9.13;;;4.55;;
60211;SDS011;46079;48.686;15.598;2023-05-23T09:21:01;8.10;;;4.30;;
60211;SDS011;46079;48.686;15.598;2023-05-23T09:23:30;8.35;;;4.35;;
60211;SDS011;46079;48.686;15.598;2023-05-23T09:26:00;9.05;;;4.57;;
60211;SDS011;46079;48.686;15.598;2023-05-23T09:28:28;8.65;;;4.50;;
60211;SDS011;46079;48.686;15.598;2023-05-23T09:30:57;8.95;;;4.45;;
60211;SDS011;46079;48.686;15.598;2023-05-23T09:33:27;9.90;;;4.70;;
60211;SDS011;46079;48.686;15.598;2023-05-23T09:36:12;9.07;;;4.80;;
60211;SDS011;46079;48.686;15.598;2023-05-23T09:38:38;8.98;;;4.80;;
60211;SDS011;46079;48.686;15.598;2023-05-23T09:41:04;8.05;;;4.30;;
60211;SDS011;46079;48.686;15.598;2023-05-23T09:43:30;9.07;;;4.72;;
60211;SDS011;46079;48.686;15.598;2023-05-23T09:46:11;8.43;;;4.30;;
60211;SDS011;46079;48.686;15.598;2023-05-23T09:48:37;9.43;;;4.60;;
60211;SDS011;46079;48.686;15.598;2023-05-23T09:51:07;8.63;;;4.60;;
60211;SDS011;46079;48.686;15.598;2023-05-23T09:53:34;8.48;;;4.15;;
60211;SDS011;46079;48.686;15.598;2023-05-23T09:56:01;8.80;;;4.57;;
60211;SDS011;46079;48.686;15.598;2023-05-23T09:58:27;8.93;;;4.65;;
60211;SDS011;46079;48.686;15.598;2023-05-23T10:00:54;8.20;;;4.07;;
60211;SDS011;46079;48.686;15.598;2023-05-23T10:03:23;8.70;;;4.78;;
60211;SDS011;46079;48.686;15.598;2023-05-23T10:05:55;8.48;;;4.22;;
60211;SDS011;46079;48.686;15.598;2023-05-23T10:11:12;8.40;;;4.50;;
60211;SDS011;46079;48.686;15.598;2023-05-23T10:13:51;8.77;;;4.25;;
60211;SDS011;46079;48.686;15.598;2023-05-23T10:16:22;8.25;;;4.32;;
60211;SDS011;46079;48.686;15.598;2023-05-23T10:18:49;8.30;;;4.22;;
60211;SDS011;46079;48.686;15.598;2023-05-23T10:21:23;8.63;;;4.40;;
60211;SDS011;46079;48.686;15.598;2023-05-23T10:23:57;8.50;;;4.43;;
60211;SDS011;46079;48.686;15.598;2023-05-23T10:26:23;8.68;;;4.63;;
60211;SDS011;46079;48.686;15.598;2023-05-23T10:28:49;8.50;;;4.60;;
60211;SDS011;46079;48.686;15.598;2023-05-23T10:31:15;8.95;;;4.65;;
60211;SDS011;46079;48.686;15.598;2023-05-23T10:33:42;8.65;;;4.47;;
60211;SDS011;46079;48.686;15.598;2023-05-23T10:36:24;8.77;;;4.30;;
60211;SDS011;46079;48.686;15.598;2023-05-23T10:39:08;8.20;;;4.28;;
60211;SDS011;46079;48.686;15.598;2023-05-23T10:41:55;8.65;;;4.38;;
60211;SDS011;46079;48.686;15.598;2023-05-23T10:44:28;8.68;;;4.25;;
60211;SDS011;46079;48.686;15.598;2023-05-23T10:52:09;8.02;;;3.97;;
60211;SDS011;46079;48.686;15.598;2023-05-23T10:54:42;8.18;;;4.00;;
60211;SDS011;46079;48.686;15.598;2023-05-23T10:57:09;8.90;;;4.53;;
60211;SDS011;46079;48.686;15.598;2023-05-23T10:59:37;8.50;;;4.40;;
60211;SDS011;46079;48.686;15.598;2023-05-23T11:02:04;9.15;;;4.70;;
60211;SDS011;46079;48.686;15.598;2023-05-23T11:04:36;8.70;;;4.68;;
60211;SDS011;46079;48.686;15.598;2023-05-23T11:07:01;11.38;;;5.53;;
60211;SDS011;46079;48.686;15.598;2023-05-23T11:09:27;9.65;;;5.20;;
60211;SDS011;46079;48.686;15.598;2023-05-23T11:11:53;9.30;;;5.40;;
60211;SDS011;46079;48.686;15.598;2023-05-23T11:16:58;10.07;;;5.50;;
60211;SDS011;46079;48.686;15.598;2023-05-23T11:19:25;9.65;;;5.47;;
60211;SDS011;46079;48.686;15.598;2023-05-23T11:21:53;10.93;;;5.80;;
60211;SDS011;46079;48.686;15.598;2023-05-23T11:30:02;10.57;;;6.60;;
60211;SDS011;46079;48.686;15.598;2023-05-23T11:32:29;10.25;;;6.00;;
60211;SDS011;46079;48.686;15.598;2023-05-23T11:34:57;11.20;;;6.82;;
60211;SDS011;46079;48.686;15.598;2023-05-23T11:37:33;11.20;;;6.53;;
60211;SDS011;46079;48.686;15.598;2023-05-23T11:39:59;14.55;;;7.03;;
60211;SDS011;46079;48.686;15.598;2023-05-23T11:42:44;11.27;;;7.18;;
60211;SDS011;46079;48.686;15.598;2023-05-23T11:45:10;11.75;;;7.28;;
60211;SDS011;46079;48.686;15.598;2023-05-23T11:47:44;12.57;;;7.20;;
60211;SDS011;46079;48.686;15.598;2023-05-23T11:50:10;11.50;;;7.38;;
60211;SDS011;46079;48.686;15.598;2023-05-23T11:52:35;12.98;;;7.65;;
60211;SDS011;46079;48.686;15.598;2023-05-23T11:55:01;12.40;;;7.72;;
60211;SDS011;46079;48.686;15.598;2023-05-23T11:57:26;13.30;;;7.82;;
60211;SDS011;46079;48.686;15.598;2023-05-23T11:59:52;11.10;;;7.28;;
60211;SDS011;46079;48.686;15.598;2023-05-23T12:02:19;11.95;;;7.28;;
60211;SDS011;46079;48.686;15.598;2023-05-23T12:04:45;11.50;;;7.30;;
60211;SDS011;46079;48.686;15.598;2023-05-23T12:07:11;11.95;;;7.95;;
60211;SDS011;46079;48.686;15.598;2023-05-23T12:09:42;12.20;;;8.00;;
60211;SDS011;46079;48.686;15.598;2023-05-23T12:12:09;12.82;;;8.35;;
60211;SDS011;46079;48.686;15.598;2023-05-23T12:14:34;12.45;;;7.45;;
60211;SDS011;46079;48.686;15.598;2023-05-23T12:17:03;12.60;;;7.75;;
60211;SDS011;46079;48.686;15.598;2023-05-23T12:19:28;12.13;;;7.75;;
60211;SDS011;46079;48.686;15.598;2023-05-23T12:21:55;14.25;;;8.60;;
60211;SDS011;46079;48.686;15.598;2023-05-23T12:24:23;12.52;;;8.07;;
60211;SDS011;46079;48.686;15.598;2023-05-23T12:26:52;12.57;;;7.95;;
60211;SDS011;46079;48.686;15.598;2023-05-23T12:29:28;12.35;;;8.30;;
60211;SDS011;46079;48.686;15.598;2023-05-23T12:31:56;12.07;;;7.57;;
60211;SDS011;46079;48.686;15.598;2023-05-23T12:34:23;12.88;;;7.93;;
60211;SDS011;46079;48.686;15.598;2023-05-23T12:36:49;12.02;;;7.80;;
60211;SDS011;46079;48.686;15.598;2023-05-23T12:39:28;13.80;;;7.55;;
60211;SDS011;46079;48.686;15.598;2023-05-23T12:41:55;12.35;;;7.85;;
60211;SDS011;46079;48.686;15.598;2023-05-23T12:44:32;12.68;;;7.40;;
60211;SDS011;46079;48.686;15.598;2023-05-23T12:46:58;12.75;;;7.82;;
60211;SDS011;46079;48.686;15.598;2023-05-23T12:49:23;12.82;;;7.63;;
60211;SDS011;46079;48.686;15.598;2023-05-23T12:51:49;13.85;;;8.18;;
60211;SDS011;46079;48.686;15.598;2023-05-23T12:54:14;13.13;;;8.10;;
60211;SDS011;46079;48.686;15.598;2023-05-23T12:56:40;13.30;;;7.80;;
60211;SDS011;46079;48.686;15.598;2023-05-23T12:59:05;11.93;;;7.57;;
60211;SDS011;46079;48.686;15.598;2023-05-23T13:01:32;12.48;;;7.63;;
60211;SDS011;46079;48.686;15.598;2023-05-23T13:03:58;11.93;;;7.30;;
60211;SDS011;46079;48.686;15.598;2023-05-23T13:06:24;12.70;;;7.63;;
60211;SDS011;46079;48.686;15.598;2023-05-23T13:08:50;12.13;;;7.20;;
60211;SDS011;46079;48.686;15.598;2023-05-23T13:11:18;11.30;;;7.57;;
60211;SDS011;46079;48.686;15.598;2023-05-23T13:13:45;12.38;;;7.43;;
60211;SDS011;46079;48.686;15.598;2023-05-23T13:16:10;12.68;;;7.70;;
60211;SDS011;46079;48.686;15.598;2023-05-23T13:18:36;12.40;;;6.90;;
60211;SDS011;46079;48.686;15.598;2023-05-23T13:21:02;12.35;;;7.13;;
60211;SDS011;46079;48.686;15.598;2023-05-23T13:23:27;11.63;;;7.68;;
60211;SDS011;46079;48.686;15.598;2023-05-23T13:25:53;12.63;;;7.30;;
60211;SDS011;46079;48.686;15.598;2023-05-23T13:28:19;11.40;;;7.20;;
60211;SDS011;46079;48.686;15.598;2023-05-23T13:30:45;11.23;;;7.13;;
60211;SDS011;46079;48.686;15.598;2023-05-23T13:33:10;11.77;;;7.40;;
60211;SDS011;46079;48.686;15.598;2023-05-23T13:35:36;12.70;;;7.65;;
60211;SDS011;46079;48.686;15.598;2023-05-23T13:38:01;11.30;;;7.20;;
60211;SDS011;46079;48.686;15.598;2023-05-23T13:40:28;11.38;;;6.90;;
60211;SDS011;46079;48.686;15.598;2023-05-23T13:42:53;11.27;;;6.82;;
60211;SDS011;46079;48.686;15.598;2023-05-23T13:45:19;12.00;;;7.32;;
60211;SDS011;46079;48.686;15.598;2023-05-23T13:47:46;11.07;;;6.60;;
60211;SDS011;46079;48.686;15.598;2023-05-23T13:50:11;10.88;;;6.80;;
60211;SDS011;46079;48.686;15.598;2023-05-23T13:52:37;11.88;;;7.07;;
60211;SDS011;46079;48.686;15.598;2023-05-23T13:55:03;11.80;;;6.93;;
60211;SDS011;46079;48.686;15.598;2023-05-23T13:57:29;11.30;;;6.78;;
60211;SDS011;46079;48.686;15.598;2023-05-23T13:59:55;11.88;;;6.90;;
60211;SDS011;46079;48.686;15.598;2023-05-23T14:02:21;12.00;;;6.72;;
60211;SDS011;46079;48.686;15.598;2023-05-23T14:04:49;11.27;;;6.60;;
60211;SDS011;46079;48.686;15.598;2023-05-23T14:07:16;10.90;;;6.55;;
60211;SDS011;46079;48.686;15.598;2023-05-23T14:09:42;13.07;;;6.63;;
60211;SDS011;46079;48.686;15.598;2023-05-23T14:12:08;11.20;;;6.82;;
60211;SDS011;46079;48.686;15.598;2023-05-23T14:14:33;10.93;;;6.82;;
60211;SDS011;46079;48.686;15.598;2023-05-23T14:16:58;11.60;;;6.70;;
60211;SDS011;46079;48.686;15.598;2023-05-23T14:19:24;12.43;;;6.72;;
60211;SDS011;46079;48.686;15.598;2023-05-23T14:21:49;11.65;;;6.72;;
60211;SDS011;46079;48.686;15.598;2023-05-23T14:24:15;11.25;;;6.50;;
60211;SDS011;46079;48.686;15.598;2023-05-23T14:26:40;11.05;;;7.20;;
60211;SDS011;46079;48.686;15.598;2023-05-23T14:29:06;13.27;;;6.93;;
60211;SDS011;46079;48.686;15.598;2023-05-23T14:31:31;11.43;;;6.82;;
60211;SDS011;46079;48.686;15.598;2023-05-23T14:33:57;11.05;;;6.88;;
60211;SDS011;46079;48.686;15.598;2023-05-23T14:36:23;11.68;;;6.88;;
60211;SDS011;46079;48.686;15.598;2023-05-23T14:38:50;11.77;;;6.82;;
60211;SDS011;46079;48.686;15.598;2023-05-23T14:41:15;11.00;;;6.72;;
60211;SDS011;46079;48.686;15.598;2023-05-23T14:43:41;11.80;;;6.97;;
60211;SDS011;46079;48.686;15.598;2023-05-23T14:46:06;10.68;;;6.38;;
60211;SDS011;46079;48.686;15.598;2023-05-23T14:48:32;11.05;;;6.88;;
60211;SDS011;46079;48.686;15.598;2023-05-23T14:50:58;10.88;;;6.30;;
60211;SDS011;46079;48.686;15.598;2023-05-23T14:53:26;10.95;;;6.20;;
60211;SDS011;46079;48.686;15.598;2023-05-23T14:55:52;10.68;;;6.28;;